Lake Park, FL (33403)

7:30 PM EDT on August 02, 2015 (GMT -0400)
Rybovich Boat Company | | Change Station
CLOSE
Current Station
Personal Weather Station
Location: West Palm Beach, FL
Elevation: 10 ft
Nearby Weather Stations

Elev 10 ft 26.75 °N, 80.05 °W | Updated 2 seconds ago

Overcast
Overcast
79.2 °F
Feels Like 82 °F
N
8.4
Wind Variable Wind from SSW
Gusts 16.0 mph

Today
High -- | Low -- °F
--% Chance of Precip.
Yesterday
High -- | Low -- °F
Precip. -- in
6:45 AM 8:07 PM
Waning Gibbous, 91% visible
Pressure 29.99 in
Visibility 10.0 miles
Clouds Few 3000 ft
Scattered Clouds 6000 ft
Mostly Cloudy 12000 ft
Heat Index 82 °F
Dew Point 70 °F
Humidity 74%
Rainfall 0.07 in
Snow Depth Not available.
UV 1 out of 12
Pollen 3.40 out of 12
Air Quality Not available.
Flu Activity Not available.
METAR KPBI 022253Z 27008KT 10SM FEW030 SCT060 BKN120 26/21 A2998 RMK AO2 SLP153 CB DSNT NE-S T02560211

More Conditions Fewer Conditions

Pressure 29.99 in
Visibility 10.0 miles
Clouds Few 3000 ft
Scattered Clouds 6000 ft
Mostly Cloudy 12000 ft
Heat Index 82 °F
Dew Point 70 °F
Humidity 74%
Rainfall 0.07 in
Snow Depth Not available.
UV 1 out of 12
Pollen 3.40 out of 12
Air Quality Not available.
Flu Activity Not available.
METAR KPBI 022253Z 27008KT 10SM FEW030 SCT060 BKN120 26/21 A2998 RMK AO2 SLP153 CB DSNT NE-S T02560211

More Conditions Fewer Conditions

Nowcast | as of 5:20 PM EDT on August 2, 2015

Scattered showers and thunderstorms will move north at 15 to 20 mph and affect parts of Southeast Florida into the early evening hours. While most of the stronger storms will be over The Everglades, additional showers and thunderstorms will move over the Metro areas mainly from northern Miami-Dade County through the Palm beaches. Gusty winds of 30 to 40 mph, occasional lightning and heavy rain can be expected with the stronger storms.

×

10-Day Weather Forecast

×

Almanac

Astronomy

Aug. 02, 2015 Rise Set
Actual Time
Civil Twilight
Nautical Twilight
Astronomical Twilight
Moon
Length of Visible Light
Length of Day
Tomorrow will be .
, % of the Moon is Illuminated

Today's Extremes

State Highs State Lows

Community

WunderPhotos

Upload Photos

1,843,426 photos uploaded!

WunderBlogs® & News

Nearby

Air Quality

  Air Quality AQ Index Pollutant
Not available.

Snow Depth

Station Depth Elevation

Earthquake Activity

City Distance Mag. Time & Date
Minimum magnitude displayed is 2.5.

Coastal Water Temperatures

Place Temperature

Stations

Nearby Weather Stations

Station Location Temp. Windchill Dew Point Humidity Wind Precip. Elev Updated Type